createdAt,value
2022-09-23T00:01:15.727Z,8.58
2022-09-23T00:03:46.553Z,8.53
2022-09-23T00:06:16.516Z,8.48
2022-09-23T00:08:44.903Z,8.46
2022-09-23T00:11:14.949Z,8.43
2022-09-23T00:13:44.638Z,8.41
2022-09-23T00:16:15.582Z,8.39
2022-09-23T00:18:44.636Z,8.36
2022-09-23T00:21:14.371Z,8.33
2022-09-23T00:23:43.790Z,8.30
2022-09-23T00:26:13.751Z,8.30
2022-09-23T00:28:41.406Z,8.27
2022-09-23T00:31:10.857Z,8.24
2022-09-23T00:33:40.393Z,8.21
2022-09-23T00:36:11.914Z,8.21
2022-09-23T00:38:40.112Z,8.18
2022-09-23T00:41:07.870Z,8.18
2022-09-23T00:43:41.046Z,8.19
2022-09-23T00:46:10.593Z,8.18
2022-09-23T00:48:42.061Z,8.16
2022-09-23T00:51:17.699Z,8.12
2022-09-23T00:53:46.701Z,8.08
2022-09-23T00:56:15.744Z,8.07
2022-09-23T00:58:48.148Z,8.02
2022-09-23T01:01:15.831Z,8.03
2022-09-23T01:03:46.258Z,8.01
2022-09-23T01:06:15.201Z,8.01
2022-09-23T01:08:45.291Z,8.00
2022-09-23T01:11:27.964Z,8.01
2022-09-23T01:14:07.179Z,8.02
2022-09-23T01:16:41.026Z,8.00
2022-09-23T01:19:25.330Z,7.95
2022-09-23T01:22:04.868Z,7.89
2022-09-23T01:24:59.356Z,7.82
2022-09-23T01:27:42.684Z,7.81
2022-09-23T01:30:17.795Z,7.79
2022-09-23T01:32:57.276Z,7.77
2022-09-23T01:35:30.252Z,7.75
2022-09-23T01:38:08.697Z,7.73
2022-09-23T01:40:46.379Z,7.72
2022-09-23T01:43:21.083Z,7.70
2022-09-23T01:45:54.404Z,7.65
2022-09-23T01:48:27.292Z,7.63
2022-09-23T01:50:58.984Z,7.58
2022-09-23T01:53:32.883Z,7.53
2022-09-23T01:56:05.137Z,7.48
2022-09-23T01:58:39.012Z,7.40
2022-09-23T02:01:08.721Z,7.38
2022-09-23T02:03:44.879Z,7.36
2022-09-23T02:06:17.052Z,7.35
2022-09-23T02:08:50.102Z,7.33
2022-09-23T02:11:18.274Z,7.33
2022-09-23T02:13:51.221Z,7.32
2022-09-23T02:16:26.230Z,7.32
2022-09-23T02:19:00.248Z,7.33
2022-09-23T02:21:33.770Z,7.36
2022-09-23T02:24:03.345Z,7.37
2022-09-23T02:26:35.495Z,7.39
2022-09-23T02:29:17.011Z,7.38
2022-09-23T02:31:48.630Z,7.34
2022-09-23T02:34:23.260Z,7.27
2022-09-23T02:37:04.509Z,7.20
2022-09-23T02:39:42.703Z,7.17
2022-09-23T02:42:15.768Z,7.15
2022-09-23T02:44:43.564Z,7.11
2022-09-23T02:47:11.502Z,7.10
2022-09-23T02:49:40.483Z,7.09
2022-09-23T02:52:09.200Z,7.06
2022-09-23T02:54:38.204Z,7.01
2022-09-23T02:57:08.088Z,7.00
2022-09-23T02:59:37.819Z,6.99
2022-09-23T03:02:26.478Z,6.99
2022-09-23T03:05:05.084Z,7.00
2022-09-23T03:07:42.779Z,7.00
2022-09-23T03:10:20.065Z,7.01
2022-09-23T03:12:59.419Z,6.99
2022-09-23T03:15:36.381Z,6.97
2022-09-23T03:18:11.986Z,6.96
2022-09-23T03:20:46.197Z,6.96
2022-09-23T03:23:17.564Z,6.95
2022-09-23T03:25:49.091Z,6.94
2022-09-23T03:28:18.425Z,6.91
2022-09-23T03:30:46.815Z,6.91
2022-09-23T03:33:16.783Z,6.90
2022-09-23T03:36:10.602Z,6.92
2022-09-23T03:38:42.436Z,6.91
2022-09-23T03:41:12.845Z,6.89
2022-09-23T03:43:40.970Z,6.89
2022-09-23T03:46:09.071Z,6.89
2022-09-23T03:48:36.656Z,6.88
2022-09-23T03:51:20.565Z,6.90
2022-09-23T03:53:48.200Z,6.89
2022-09-23T03:56:15.796Z,6.90
2022-09-23T03:58:43.956Z,6.89
2022-09-23T04:01:11.604Z,6.89
2022-09-23T04:03:39.224Z,6.88
2022-09-23T04:06:08.548Z,6.85
2022-09-23T04:08:36.125Z,6.86
2022-09-23T04:11:04.633Z,6.84
2022-09-23T04:13:32.637Z,6.83
2022-09-23T04:16:00.292Z,6.82
2022-09-23T04:18:27.889Z,6.81
2022-09-23T04:20:59.409Z,6.78
2022-09-23T04:23:28.464Z,6.76
2022-09-23T04:25:56.138Z,6.73
2022-09-23T04:28:23.739Z,6.68
2022-09-23T04:30:51.291Z,6.65
2022-09-23T04:33:18.857Z,6.62
2022-09-23T04:35:51.216Z,6.62
2022-09-23T04:38:19.651Z,6.58
2022-09-23T04:40:49.102Z,6.60
2022-09-23T04:43:17.472Z,6.67
2022-09-23T04:45:45.565Z,6.74
2022-09-23T04:48:13.824Z,6.77
2022-09-23T04:50:41.464Z,6.76
2022-09-23T04:53:09.051Z,6.74
2022-09-23T04:55:36.605Z,6.70
2022-09-23T04:58:05.496Z,6.68
2022-09-23T05:00:33.435Z,6.64
2022-09-23T05:03:00.994Z,6.60
2022-09-23T05:05:29.647Z,6.59
2022-09-23T05:07:57.835Z,6.56
2022-09-23T05:10:25.350Z,6.58
2022-09-23T05:12:57.100Z,6.56
2022-09-23T05:15:26.476Z,6.56
2022-09-23T05:17:54.004Z,6.52
2022-09-23T05:20:21.529Z,6.54
2022-09-23T05:22:49.028Z,6.52
2022-09-23T05:25:16.851Z,6.54
2022-09-23T05:27:44.371Z,6.58
2022-09-23T05:30:12.377Z,6.64
2022-09-23T05:32:41.253Z,6.69
2022-09-23T05:35:09.500Z,6.72
2022-09-23T05:37:37.160Z,6.76
2022-09-23T05:40:05.375Z,6.80
2022-09-23T05:42:32.897Z,6.84
2022-09-23T05:45:00.377Z,6.84
2022-09-23T05:47:27.889Z,6.88
2022-09-23T05:49:59.942Z,6.94
2022-09-23T05:52:28.236Z,6.96
2022-09-23T05:54:55.725Z,7.02
2022-09-23T05:57:23.286Z,7.07
2022-09-23T05:59:50.858Z,7.10
2022-09-23T06:02:18.430Z,7.17
2022-09-23T06:04:46.032Z,7.25
2022-09-23T06:07:14.854Z,7.29
2022-09-23T06:09:42.777Z,7.39
2022-09-23T06:12:10.244Z,7.42
2022-09-23T06:14:38.328Z,7.51
2022-09-23T06:17:05.858Z,7.58
2022-09-23T06:19:33.421Z,7.66
2022-09-23T06:22:01.545Z,7.72
2022-09-23T06:24:31.718Z,7.83
2022-09-23T06:26:59.386Z,7.91
2022-09-23T06:29:26.904Z,8.00
2022-09-23T06:31:54.634Z,8.10
2022-09-23T06:34:22.212Z,8.24
2022-09-23T06:36:51.476Z,8.35
2022-09-23T06:39:18.959Z,8.46
2022-09-23T06:41:48.044Z,8.61
2022-09-23T06:44:16.152Z,8.77
2022-09-23T06:46:44.286Z,8.92
2022-09-23T06:49:12.839Z,9.11
2022-09-23T06:51:40.995Z,9.25
2022-09-23T06:54:08.920Z,9.35
2022-09-23T06:56:39.528Z,9.40
2022-09-23T06:59:12.980Z,9.47
2022-09-23T07:01:40.608Z,9.54
2022-09-23T07:04:10.074Z,9.62
2022-09-23T07:06:37.950Z,9.70
2022-09-23T07:09:07.068Z,9.79
2022-09-23T07:11:34.635Z,9.84
2022-09-23T07:14:02.185Z,9.95
2022-09-23T07:16:31.493Z,10.06
2022-09-23T07:18:59.292Z,10.14
2022-09-23T07:21:27.788Z,10.26
2022-09-23T07:23:57.892Z,10.36
2022-09-23T07:26:26.527Z,10.42
2022-09-23T07:28:56.590Z,10.53
2022-09-23T07:31:37.401Z,10.56
2022-09-23T07:34:11.626Z,10.62
2022-09-23T07:36:41.934Z,10.70
2022-09-23T07:39:11.000Z,10.73
2022-09-23T07:41:39.145Z,10.79
2022-09-23T07:44:06.699Z,10.94
2022-09-23T07:46:36.911Z,11.03
2022-09-23T07:49:05.541Z,11.12
2022-09-23T07:51:38.119Z,11.27
2022-09-23T07:54:08.613Z,11.36
2022-09-23T07:56:38.314Z,11.48
2022-09-23T07:59:08.554Z,11.64
2022-09-23T08:01:38.890Z,11.73
2022-09-23T08:04:11.205Z,11.82
2022-09-23T08:06:43.407Z,11.88
2022-09-23T08:09:11.464Z,12.00
2022-09-23T08:11:39.325Z,12.09
2022-09-23T08:14:08.538Z,12.16
2022-09-23T08:16:37.051Z,12.27
2022-09-23T08:21:33.673Z,12.38
2022-09-23T08:24:02.979Z,12.44
2022-09-23T08:26:31.441Z,12.58
2022-09-23T08:28:58.928Z,12.63
2022-09-23T08:31:26.736Z,12.72
2022-09-23T08:33:56.557Z,12.85
2022-09-23T08:36:24.309Z,13.07
2022-09-23T08:38:51.933Z,13.28
2022-09-23T08:41:31.192Z,13.37
2022-09-23T08:44:04.784Z,13.55
2022-09-23T08:46:37.536Z,13.71
2022-09-23T08:49:07.619Z,13.78
2022-09-23T08:51:42.345Z,13.83
2022-09-23T08:54:11.083Z,13.93
2022-09-23T08:56:40.783Z,14.16
2022-09-23T08:59:15.206Z,14.27
2022-09-23T09:01:45.712Z,14.39
2022-09-23T09:04:18.281Z,14.58
2022-09-23T09:06:53.893Z,14.86
2022-09-23T09:09:26.593Z,15.06
2022-09-23T09:12:01.127Z,15.18
2022-09-23T09:14:36.717Z,15.31
2022-09-23T09:17:08.016Z,15.43
2022-09-23T09:20:05.242Z,15.63
2022-09-23T09:22:44.597Z,15.74
2022-09-23T09:25:23.799Z,15.97
2022-09-23T09:27:54.150Z,16.13
2022-09-23T09:30:21.757Z,16.21
2022-09-23T09:32:56.573Z,16.23
2022-09-23T09:35:34.976Z,16.50
2022-09-23T09:38:02.750Z,16.56
2022-09-23T09:40:30.882Z,16.75
2022-09-23T09:42:59.848Z,16.84
2022-09-23T09:45:42.632Z,16.80
2022-09-23T09:48:17.577Z,17.10
2022-09-23T09:50:49.028Z,17.22
2022-09-23T09:53:22.281Z,17.40
2022-09-23T09:56:04.356Z,17.52
2022-09-23T09:58:41.551Z,17.50
2022-09-23T10:01:09.464Z,17.46
2022-09-23T10:03:42.117Z,17.59
2022-09-23T10:06:18.776Z,17.80
2022-09-23T10:09:05.747Z,18.23
2022-09-23T10:11:34.090Z,18.28
2022-09-23T10:14:09.245Z,18.62
2022-09-23T10:16:37.111Z,18.78
2022-09-23T10:19:13.153Z,18.83
2022-09-23T10:21:42.147Z,19.18
2022-09-23T10:24:22.501Z,19.36
2022-09-23T10:26:55.885Z,19.28
2022-09-23T10:29:29.687Z,18.88
2022-09-23T10:32:22.864Z,18.69
2022-09-23T10:34:54.071Z,18.77
2022-09-23T10:37:30.650Z,18.91
2022-09-23T10:40:16.293Z,19.15
2022-09-23T10:43:20.394Z,19.22
2022-09-23T10:46:08.152Z,19.54
2022-09-23T10:48:46.858Z,19.66
2022-09-23T10:51:25.994Z,19.74
2022-09-23T10:54:03.939Z,19.61
2022-09-23T10:56:36.914Z,19.69
2022-09-23T10:59:33.498Z,19.87
2022-09-23T11:02:21.338Z,20.36
2022-09-23T11:05:06.528Z,20.79
2022-09-23T11:07:39.789Z,21.16
2022-09-23T11:10:44.851Z,21.60
2022-09-23T11:13:25.189Z,21.80
2022-09-23T11:16:01.811Z,21.61
2022-09-23T11:18:45.605Z,20.72
2022-09-23T11:21:31.091Z,20.33
2022-09-23T11:24:18.638Z,20.25
2022-09-23T11:26:56.435Z,20.38
2022-09-23T11:29:53.479Z,20.53
2022-09-23T11:32:41.108Z,20.80
2022-09-23T11:35:17.665Z,21.03
2022-09-23T11:37:49.812Z,20.63
2022-09-23T11:40:22.591Z,20.58
2022-09-23T11:42:56.094Z,20.70
2022-09-23T11:45:27.794Z,20.96
2022-09-23T11:47:58.400Z,21.48
2022-09-23T11:50:33.888Z,22.05
2022-09-23T11:53:05.777Z,22.70
2022-09-23T11:55:50.418Z,23.22
2022-09-23T11:58:27.124Z,23.28
2022-09-23T12:01:01.395Z,22.48
2022-09-23T12:03:44.377Z,22.65
2022-09-23T12:06:18.594Z,23.13
2022-09-23T12:08:46.369Z,23.33
2022-09-23T12:11:25.349Z,23.32
2022-09-23T12:14:02.861Z,23.75
2022-09-23T12:16:48.530Z,24.16
2022-09-23T12:19:36.790Z,24.65
2022-09-23T12:22:30.267Z,24.69
2022-09-23T12:25:00.352Z,24.92
2022-09-23T12:27:37.053Z,25.07
2022-09-23T12:30:07.796Z,24.15
2022-09-23T12:32:35.454Z,24.41
2022-09-23T12:35:03.435Z,24.77
2022-09-23T12:37:35.472Z,25.01
2022-09-23T12:40:10.513Z,25.47
2022-09-23T12:42:44.717Z,24.92
2022-09-23T12:45:35.018Z,24.47
2022-09-23T12:48:04.211Z,25.10
2022-09-23T12:50:49.121Z,25.61
2022-09-23T12:53:52.892Z,26.19
2022-09-23T12:56:24.373Z,25.31
2022-09-23T12:59:13.881Z,25.74
2022-09-23T13:01:42.143Z,26.17
2022-09-23T13:04:52.680Z,26.54
2022-09-23T13:07:25.423Z,26.29
2022-09-23T13:09:58.105Z,26.45
2022-09-23T13:12:33.466Z,26.09
2022-09-23T13:15:06.209Z,25.01
2022-09-23T13:17:37.294Z,24.40
2022-09-23T13:20:26.439Z,24.54
2022-09-23T13:23:21.323Z,24.81
2022-09-23T13:25:51.097Z,24.97
2022-09-23T13:28:36.777Z,24.64
2022-09-23T13:31:06.327Z,24.59
2022-09-23T13:33:42.823Z,24.63
2022-09-23T13:36:16.316Z,24.70
2022-09-23T13:38:46.512Z,25.08
2022-09-23T13:41:16.924Z,25.61
2022-09-23T13:43:48.955Z,25.74
2022-09-23T13:46:19.772Z,26.06
2022-09-23T13:48:49.750Z,26.15
2022-09-23T13:51:24.489Z,25.82
2022-09-23T13:53:56.613Z,25.70
2022-09-23T13:56:25.606Z,25.85
2022-09-23T13:58:56.562Z,25.79
2022-09-23T14:01:30.909Z,25.54
2022-09-23T14:03:59.012Z,25.39
2022-09-23T14:06:28.076Z,25.29
2022-09-23T14:08:56.475Z,25.58
2022-09-23T14:11:30.532Z,25.45
2022-09-23T14:14:07.736Z,25.46
2022-09-23T14:16:38.931Z,25.04
2022-09-23T14:19:07.929Z,24.94
2022-09-23T14:21:37.412Z,24.87
2022-09-23T14:24:16.629Z,24.33
2022-09-23T14:26:47.216Z,24.44
2022-09-23T14:29:18.528Z,24.38
2022-09-23T14:31:56.586Z,24.36
2022-09-23T14:34:49.951Z,24.05
2022-09-23T14:37:48.468Z,23.81
2022-09-23T14:40:18.509Z,22.97
2022-09-23T14:42:48.770Z,22.97
2022-09-23T14:45:21.404Z,23.35
2022-09-23T14:47:52.142Z,23.81
2022-09-23T14:50:39.260Z,24.05
2022-09-23T14:53:37.668Z,24.50
2022-09-23T14:56:15.620Z,24.46
2022-09-23T14:58:50.974Z,24.82
2022-09-23T15:01:42.193Z,24.82
2022-09-23T15:04:31.274Z,24.86
2022-09-23T15:07:03.272Z,24.25
2022-09-23T15:09:34.274Z,23.92
2022-09-23T15:12:06.413Z,23.48
2022-09-23T15:14:41.226Z,22.92
2022-09-23T15:17:32.551Z,22.50
2022-09-23T15:20:02.996Z,21.99
2022-09-23T15:22:30.510Z,21.88
2022-09-23T15:25:16.067Z,21.78
2022-09-23T15:27:57.333Z,21.85
2022-09-23T15:30:25.241Z,21.68
2022-09-23T15:32:54.135Z,21.58
2022-09-23T15:35:25.507Z,21.53
2022-09-23T15:37:57.120Z,21.48
2022-09-23T15:40:27.261Z,21.44
2022-09-23T15:42:56.733Z,21.36
2022-09-23T15:45:31.067Z,21.17
2022-09-23T15:48:07.071Z,21.07
2022-09-23T15:50:35.419Z,20.86
2022-09-23T15:53:03.024Z,20.77
2022-09-23T15:55:31.504Z,20.72
2022-09-23T15:57:59.044Z,20.68
2022-09-23T16:00:26.656Z,20.64
2022-09-23T16:02:55.115Z,20.60
2022-09-23T16:05:33.369Z,20.51
2022-09-23T16:08:04.900Z,20.43
2022-09-23T16:10:35.994Z,20.34
2022-09-23T16:13:05.801Z,20.26
2022-09-23T16:15:34.422Z,20.05
2022-09-23T16:18:02.298Z,19.99
2022-09-23T16:20:31.400Z,19.85
2022-09-23T16:23:00.721Z,19.71
2022-09-23T16:25:31.833Z,19.50
2022-09-23T16:27:59.542Z,19.28
2022-09-23T16:30:29.417Z,19.23
2022-09-23T16:32:57.245Z,19.25
2022-09-23T16:35:27.837Z,19.23
2022-09-23T16:37:57.087Z,19.12
2022-09-23T16:40:25.659Z,18.92
2022-09-23T16:42:54.795Z,18.70
2022-09-23T16:45:23.281Z,18.63
2022-09-23T16:47:52.344Z,18.53
2022-09-23T16:50:22.534Z,18.41
2022-09-23T16:52:52.218Z,18.32
2022-09-23T16:55:21.868Z,18.21
2022-09-23T16:57:49.469Z,17.92
2022-09-23T17:00:35.081Z,17.89
2022-09-23T17:03:20.659Z,17.83
2022-09-23T17:05:49.233Z,17.67
2022-09-23T17:08:18.188Z,17.55
2022-09-23T17:10:56.981Z,17.36
2022-09-23T17:13:25.349Z,17.21
2022-09-23T17:15:53.200Z,17.14
2022-09-23T17:18:21.603Z,17.03
2022-09-23T17:21:02.689Z,16.89
2022-09-23T17:23:31.853Z,16.82
2022-09-23T17:26:01.099Z,16.75
2022-09-23T17:28:29.128Z,16.62
2022-09-23T17:30:58.670Z,16.48
2022-09-23T17:33:26.931Z,16.38
2022-09-23T17:35:54.730Z,16.26
2022-09-23T17:38:27.998Z,16.17
2022-09-23T17:41:00.986Z,16.09
2022-09-23T17:43:31.357Z,16.02
2022-09-23T17:46:06.092Z,15.90
2022-09-23T17:48:35.740Z,15.86
2022-09-23T17:51:05.576Z,15.86
2022-09-23T17:53:35.010Z,15.66
2022-09-23T17:56:06.059Z,15.61
2022-09-23T17:58:36.831Z,15.48
2022-09-23T18:01:05.385Z,15.35
2022-09-23T18:03:33.099Z,15.23
2022-09-23T18:06:08.761Z,15.18
2022-09-23T18:08:36.450Z,15.09
2022-09-23T18:11:12.402Z,15.01
2022-09-23T18:13:41.572Z,15.02
2022-09-23T18:16:09.360Z,14.96
2022-09-23T18:18:37.044Z,14.94
2022-09-23T18:21:05.915Z,14.90
2022-09-23T18:23:34.361Z,14.81
2022-09-23T18:26:01.950Z,14.80
2022-09-23T18:28:34.644Z,14.80
2022-09-23T18:31:04.051Z,14.78
2022-09-23T18:33:31.699Z,14.77
2022-09-23T18:36:00.155Z,14.66
2022-09-23T18:38:27.727Z,14.71
2022-09-23T18:40:57.662Z,14.69
2022-09-23T18:43:29.520Z,14.66
2022-09-23T18:46:01.990Z,14.61
2022-09-23T18:48:49.746Z,14.57
2022-09-23T18:51:18.772Z,14.50
2022-09-23T18:53:47.895Z,14.49
2022-09-23T18:56:19.083Z,14.45
2022-09-23T18:58:47.617Z,14.43
2022-09-23T19:01:16.387Z,14.42
2022-09-23T19:03:45.497Z,14.46
2022-09-23T19:06:19.308Z,14.34
2022-09-23T19:08:51.194Z,14.28
2022-09-23T19:11:19.498Z,14.21
2022-09-23T19:13:47.592Z,14.16
2022-09-23T19:16:16.812Z,14.09
2022-09-23T19:18:46.567Z,14.09
2022-09-23T19:21:15.854Z,14.05
2022-09-23T19:23:47.947Z,14.01
2022-09-23T19:26:17.774Z,13.95
2022-09-23T19:28:49.773Z,13.84
2022-09-23T19:35:18.296Z,13.79
2022-09-23T19:37:49.200Z,13.75
2022-09-23T19:40:17.051Z,13.69
2022-09-23T19:42:44.660Z,13.68
2022-09-23T19:45:12.220Z,13.61
2022-09-23T19:47:39.789Z,13.57
2022-09-23T19:50:07.915Z,13.57
2022-09-23T19:52:37.688Z,13.56
2022-09-23T19:55:06.520Z,13.52
2022-09-23T19:57:34.294Z,13.53
2022-09-23T20:00:02.326Z,13.48
2022-09-23T20:02:39.845Z,13.44
2022-09-23T20:05:10.773Z,13.33
2022-09-23T20:07:42.324Z,13.30
2022-09-23T20:10:11.243Z,13.28
2022-09-23T20:12:42.092Z,13.29
2022-09-23T20:15:10.909Z,13.27
2022-09-23T20:17:39.917Z,13.28
2022-09-23T20:20:08.843Z,13.24
2022-09-23T20:22:36.425Z,13.21
2022-09-23T20:25:07.269Z,13.14
2022-09-23T20:27:34.785Z,13.10
2022-09-23T20:30:03.056Z,13.10
2022-09-23T20:32:30.726Z,13.09
2022-09-23T20:34:58.273Z,13.06
2022-09-23T20:37:25.914Z,13.01
2022-09-23T20:39:53.563Z,12.93
2022-09-23T20:42:22.424Z,12.90
2022-09-23T20:44:49.951Z,12.88
2022-09-23T20:47:18.744Z,12.86
2022-09-23T20:49:48.747Z,12.85
2022-09-23T20:52:20.154Z,12.83
2022-09-23T20:54:51.497Z,12.78
2022-09-23T20:57:20.860Z,12.73
2022-09-23T20:59:49.882Z,12.72
2022-09-23T21:02:17.600Z,12.69
2022-09-23T21:04:45.257Z,12.63
2022-09-23T21:07:12.749Z,12.62
2022-09-23T21:09:40.278Z,12.61
2022-09-23T21:12:07.859Z,12.62
2022-09-23T21:14:35.445Z,12.59
2022-09-23T21:17:04.298Z,12.59
2022-09-23T21:19:35.078Z,12.55
2022-09-23T21:22:02.564Z,12.54
2022-09-23T21:27:17.589Z,12.46
2022-09-23T21:29:45.141Z,12.39
2022-09-23T21:32:14.008Z,12.35
2022-09-23T21:34:41.547Z,12.38
2022-09-23T21:37:09.033Z,12.37
2022-09-23T21:39:36.568Z,12.34
2022-09-23T21:42:04.333Z,12.32
2022-09-23T21:44:31.877Z,12.30
2022-09-23T21:46:59.480Z,12.26
2022-09-23T21:49:28.457Z,12.25
2022-09-23T21:51:58.841Z,12.21
2022-09-23T21:54:26.583Z,12.20
2022-09-23T21:56:54.225Z,12.17
2022-09-23T21:59:21.782Z,12.15
2022-09-23T22:01:54.007Z,12.10
2022-09-23T22:04:22.107Z,12.10
2022-09-23T22:06:51.029Z,12.08
2022-09-23T22:09:20.288Z,12.07
2022-09-23T22:12:08.488Z,12.08
2022-09-23T22:14:36.758Z,12.07
2022-09-23T22:17:05.639Z,12.04
2022-09-23T22:19:39.377Z,12.03
2022-09-23T22:22:14.388Z,12.03
2022-09-23T22:24:42.589Z,12.04
2022-09-23T22:27:11.333Z,12.04
2022-09-23T22:29:56.229Z,12.02
2022-09-23T22:32:43.213Z,12.00
2022-09-23T22:35:12.686Z,12.02
2022-09-23T22:37:41.597Z,12.01
2022-09-23T22:40:11.367Z,11.99
2022-09-23T22:42:41.458Z,11.99
2022-09-23T22:45:10.797Z,11.98
2022-09-23T22:47:40.576Z,11.98
2022-09-23T22:50:10.029Z,11.99
2022-09-23T22:52:37.741Z,11.97
2022-09-23T22:55:07.916Z,11.97
2022-09-23T22:57:36.355Z,11.97
2022-09-23T23:00:04.072Z,11.99
2022-09-23T23:02:31.793Z,11.96
2022-09-23T23:05:00.229Z,11.97
2022-09-23T23:07:27.729Z,11.94
2022-09-23T23:09:55.491Z,11.93
2022-09-23T23:12:24.340Z,11.88
2022-09-23T23:14:51.844Z,11.89
2022-09-23T23:17:19.487Z,11.90
2022-09-23T23:19:47.932Z,11.88
2022-09-23T23:22:15.437Z,11.87
2022-09-23T23:24:43.020Z,11.88
2022-09-23T23:27:10.584Z,11.90
2022-09-23T23:29:39.410Z,11.92
2022-09-23T23:32:07.569Z,11.95
2022-09-23T23:34:35.090Z,11.93
2022-09-23T23:37:02.591Z,11.94
2022-09-23T23:39:30.141Z,11.96
2022-09-23T23:41:58.900Z,11.96
2022-09-23T23:44:27.677Z,11.95
2022-09-23T23:46:56.594Z,11.96
2022-09-23T23:49:24.153Z,11.94
2022-09-23T23:51:52.043Z,11.94
2022-09-23T23:54:19.546Z,11.95
2022-09-23T23:56:47.237Z,11.93
2022-09-23T23:59:14.889Z,11.95
